createdAt,value
2022-08-26T00:02:58.159Z,89.78
2022-08-26T00:08:02.678Z,90.98
2022-08-26T00:13:09.356Z,88.52
2022-08-26T00:18:21.929Z,86.09
2022-08-26T00:23:28.950Z,85.70
2022-08-26T00:28:34.467Z,84.21
2022-08-26T00:33:40.914Z,83.40
2022-08-26T00:38:45.748Z,83.34
2022-08-26T00:43:51.838Z,84.83
2022-08-26T00:49:11.886Z,85.22
2022-08-26T00:54:20.100Z,86.39
2022-08-26T00:59:26.513Z,87.31
2022-08-26T01:04:36.758Z,86.01
2022-08-26T01:09:41.009Z,85.21
2022-08-26T01:14:47.174Z,84.70
2022-08-26T01:20:04.889Z,85.29
2022-08-26T01:25:11.562Z,86.86
2022-08-26T01:30:16.117Z,88.30
2022-08-26T01:35:21.376Z,89.30
2022-08-26T01:40:33.475Z,89.22
2022-08-26T01:45:42.098Z,90.14
2022-08-26T01:50:47.890Z,91.41
2022-08-26T01:56:00.001Z,92.17
2022-08-26T02:01:04.834Z,92.31
2022-08-26T02:06:10.355Z,93.14
2022-08-26T02:11:18.399Z,93.56
2022-08-26T02:16:27.954Z,94.39
2022-08-26T02:21:33.500Z,95.44
2022-08-26T02:26:39.636Z,95.68
2022-08-26T02:31:43.913Z,96.13
2022-08-26T02:36:49.355Z,97.09
2022-08-26T02:41:57.575Z,98.85
2022-08-26T02:47:02.076Z,99.67
2022-08-26T02:52:06.558Z,100.00
2022-08-26T02:57:12.547Z,100.00
2022-08-26T03:02:17.327Z,100.00
2022-08-26T03:07:21.573Z,100.00
2022-08-26T03:12:27.464Z,100.00
2022-08-26T03:17:31.612Z,100.00
2022-08-26T03:22:36.066Z,100.00
2022-08-26T03:27:41.696Z,100.00
2022-08-26T03:32:47.420Z,100.00
2022-08-26T03:37:52.159Z,100.00
2022-08-26T03:42:58.507Z,100.00
2022-08-26T03:48:05.104Z,100.00
2022-08-26T03:53:12.700Z,100.00
2022-08-26T03:58:19.022Z,100.00
2022-08-26T04:03:37.263Z,100.00
2022-08-26T04:08:41.789Z,100.00
2022-08-26T04:13:49.611Z,100.00
2022-08-26T04:18:54.078Z,100.00
2022-08-26T04:23:59.201Z,100.00
2022-08-26T04:29:13.868Z,100.00
2022-08-26T04:34:19.312Z,100.00
2022-08-26T04:39:23.687Z,100.00
2022-08-26T04:44:31.831Z,100.00
2022-08-26T04:49:37.157Z,100.00
2022-08-26T04:54:42.140Z,100.00
2022-08-26T04:59:47.863Z,100.00
2022-08-26T05:04:53.762Z,100.00
2022-08-26T05:09:58.237Z,100.00
2022-08-26T05:15:04.336Z,100.00
2022-08-26T05:20:10.883Z,100.00
2022-08-26T05:25:16.037Z,98.35
2022-08-26T05:30:25.514Z,96.17
2022-08-26T05:35:33.983Z,94.45
2022-08-26T05:40:42.224Z,91.98
2022-08-26T05:45:51.389Z,89.55
2022-08-26T05:50:55.767Z,87.93
2022-08-26T05:56:00.687Z,86.68
2022-08-26T06:01:10.308Z,84.26
2022-08-26T06:06:20.221Z,82.39
2022-08-26T06:11:33.456Z,79.77
2022-08-26T06:16:43.851Z,77.13
2022-08-26T06:21:54.904Z,73.67
2022-08-26T06:27:02.235Z,70.87
2022-08-26T06:32:08.772Z,68.49
2022-08-26T06:37:13.239Z,68.11
2022-08-26T06:42:17.797Z,66.68
2022-08-26T06:47:23.956Z,64.28
2022-08-26T06:52:29.154Z,63.28
2022-08-26T06:57:34.791Z,62.73
2022-08-26T07:02:46.921Z,61.64
2022-08-26T07:07:52.425Z,61.45
2022-08-26T07:12:56.864Z,60.35
2022-08-26T07:18:02.948Z,58.53
2022-08-26T07:23:11.869Z,55.98
2022-08-26T07:28:17.266Z,50.91
2022-08-26T07:33:23.190Z,46.56
2022-08-26T07:38:27.895Z,43.54
2022-08-26T07:43:36.876Z,43.21
2022-08-26T07:48:46.199Z,42.23
2022-08-26T07:53:52.540Z,41.50
2022-08-26T07:58:57.504Z,40.67
2022-08-26T08:04:04.596Z,39.81
2022-08-26T08:09:09.359Z,39.49
2022-08-26T08:14:14.334Z,38.72
2022-08-26T08:19:19.877Z,37.59
2022-08-26T08:24:26.051Z,37.55
2022-08-26T08:29:31.256Z,36.57
2022-08-26T08:34:37.674Z,35.51
2022-08-26T08:39:42.346Z,33.68
2022-08-26T08:44:53.448Z,33.02
2022-08-26T08:50:07.672Z,32.97
2022-08-26T08:55:18.198Z,32.33
2022-08-26T09:00:30.560Z,32.90
2022-08-26T09:05:43.386Z,32.92
2022-08-26T09:10:56.150Z,32.34
2022-08-26T09:16:10.369Z,32.26
2022-08-26T09:21:19.236Z,32.31
2022-08-26T09:26:30.635Z,32.23
2022-08-26T09:31:39.122Z,33.25
2022-08-26T09:36:48.547Z,33.12
2022-08-26T09:42:09.789Z,33.67
2022-08-26T09:47:14.285Z,33.69
2022-08-26T09:52:26.582Z,31.72
2022-08-26T09:57:35.016Z,31.00
2022-08-26T10:02:47.891Z,31.63
2022-08-26T10:07:55.679Z,30.95
2022-08-26T10:13:10.362Z,29.65
2022-08-26T10:18:21.361Z,30.43
2022-08-26T10:23:37.179Z,29.07
2022-08-26T10:28:52.026Z,31.48
2022-08-26T10:34:00.409Z,32.51
2022-08-26T10:39:23.920Z,32.47
2022-08-26T10:44:32.401Z,33.97
2022-08-26T10:49:38.735Z,34.45
2022-08-26T10:54:59.328Z,31.63
2022-08-26T11:00:28.828Z,28.54
2022-08-26T11:05:33.401Z,26.66
2022-08-26T11:10:59.258Z,24.19
2022-08-26T11:16:04.028Z,23.33
2022-08-26T11:22:06.210Z,24.60
2022-08-26T11:27:57.521Z,23.87
2022-08-26T11:33:03.264Z,25.25
2022-08-26T11:38:21.234Z,24.41
2022-08-26T11:43:30.267Z,24.08
2022-08-26T11:48:41.495Z,24.07
2022-08-26T11:53:47.209Z,22.20
2022-08-26T11:58:59.597Z,23.27
2022-08-26T12:04:09.110Z,24.93
2022-08-26T12:09:24.081Z,25.75
2022-08-26T12:14:28.607Z,24.91
2022-08-26T12:19:35.490Z,23.51
2022-08-26T12:24:45.844Z,24.73
2022-08-26T12:30:06.839Z,25.08
2022-08-26T12:35:18.524Z,24.70
2022-08-26T12:40:41.328Z,24.70
2022-08-26T12:45:59.917Z,24.77
2022-08-26T12:51:23.106Z,25.05
2022-08-26T12:56:33.757Z,26.06
2022-08-26T13:01:43.833Z,27.44
2022-08-26T13:07:22.840Z,25.77
2022-08-26T13:12:32.697Z,23.68
2022-08-26T13:17:39.683Z,22.70
2022-08-26T13:22:45.816Z,23.73
2022-08-26T13:27:58.311Z,24.57
2022-08-26T13:33:02.890Z,25.65
2022-08-26T13:38:14.765Z,25.17
2022-08-26T13:43:37.771Z,23.16
2022-08-26T13:48:42.040Z,24.07
2022-08-26T13:53:54.028Z,28.16
2022-08-26T13:58:59.422Z,32.32
2022-08-26T14:04:04.422Z,34.22
2022-08-26T14:09:11.622Z,35.27
2022-08-26T14:14:15.911Z,33.14
2022-08-26T14:19:20.372Z,34.72
2022-08-26T14:24:30.921Z,34.29
2022-08-26T14:29:35.789Z,35.03
2022-08-26T14:34:43.120Z,37.39
2022-08-26T14:39:49.920Z,38.80
2022-08-26T14:44:59.564Z,38.64
2022-08-26T14:50:04.397Z,38.92
2022-08-26T14:55:11.519Z,39.30
2022-08-26T15:00:16.831Z,36.67
2022-08-26T15:05:21.286Z,32.86
2022-08-26T15:10:27.544Z,32.27
2022-08-26T15:15:32.166Z,33.33
2022-08-26T15:20:46.147Z,35.94
2022-08-26T15:26:01.582Z,40.04
2022-08-26T15:31:08.159Z,43.41
2022-08-26T15:36:13.720Z,44.35
2022-08-26T15:41:30.588Z,45.90
2022-08-26T15:53:49.761Z,49.58
2022-08-26T16:00:16.834Z,51.19
2022-08-26T16:06:16.480Z,51.76
2022-08-26T16:12:13.036Z,53.54
2022-08-26T16:18:04.317Z,53.30
2022-08-26T16:24:33.220Z,53.00
2022-08-26T16:30:28.616Z,49.07
2022-08-26T16:36:34.048Z,48.53
2022-08-26T16:42:20.114Z,47.52
2022-08-26T16:48:00.831Z,47.75
2022-08-26T17:15:18.017Z,56.34
2022-08-26T17:20:25.711Z,57.25
2022-08-26T17:25:33.230Z,57.90
2022-08-26T17:30:40.325Z,57.26
2022-08-26T17:35:44.684Z,57.86
2022-08-26T17:40:52.832Z,58.25
2022-08-26T17:46:04.531Z,59.02
2022-08-26T17:51:15.214Z,59.60
2022-08-26T17:56:25.368Z,60.24
2022-08-26T18:01:31.236Z,61.67
2022-08-26T18:06:35.843Z,61.24
2022-08-26T18:11:41.233Z,62.66
2022-08-26T18:16:47.020Z,63.63
2022-08-26T18:21:51.496Z,64.67
2022-08-26T18:26:55.762Z,65.22
2022-08-26T18:32:01.575Z,67.59
2022-08-26T18:42:21.381Z,69.48
2022-08-26T18:47:27.213Z,70.40
2022-08-26T18:52:32.743Z,70.16
2022-08-26T18:57:37.370Z,71.18
2022-08-26T19:02:43.171Z,71.74
2022-08-26T19:07:56.567Z,73.04
2022-08-26T19:13:01.158Z,73.28
2022-08-26T19:18:11.328Z,74.13
2022-08-26T19:23:31.323Z,74.51
2022-08-26T19:28:37.651Z,75.64
2022-08-26T19:33:45.550Z,75.76
2022-08-26T19:38:51.231Z,76.64
2022-08-26T19:43:58.693Z,76.64
2022-08-26T19:49:05.643Z,76.93
2022-08-26T19:54:12.430Z,78.07
2022-08-26T19:59:17.462Z,77.83
2022-08-26T20:04:23.538Z,77.34
2022-08-26T20:09:27.968Z,76.66
2022-08-26T20:14:35.012Z,77.13
2022-08-26T20:19:58.715Z,77.89
2022-08-26T20:25:03.177Z,77.13
2022-08-26T20:30:11.250Z,78.60
2022-08-26T20:35:18.080Z,78.67
2022-08-26T20:40:22.965Z,78.99
2022-08-26T20:45:27.526Z,79.07
2022-08-26T20:50:33.922Z,79.66
2022-08-26T20:55:38.382Z,79.42
2022-08-26T21:00:43.039Z,80.52
2022-08-26T21:05:50.884Z,80.83
2022-08-26T21:10:57.972Z,82.27
2022-08-26T21:16:03.114Z,83.88
2022-08-26T21:21:10.944Z,84.67
2022-08-26T21:26:17.631Z,86.44
2022-08-26T21:31:24.901Z,88.35
2022-08-26T21:36:32.211Z,92.30
2022-08-26T21:41:36.688Z,95.19
2022-08-26T21:46:42.132Z,96.92
2022-08-26T21:51:50.717Z,99.45
2022-08-26T21:56:55.380Z,100.00
2022-08-26T22:02:00.854Z,100.00
2022-08-26T22:07:09.188Z,100.00
2022-08-26T22:12:18.032Z,100.00
2022-08-26T22:17:23.333Z,100.00
2022-08-26T22:22:29.624Z,100.00
2022-08-26T22:27:33.994Z,100.00
2022-08-26T22:32:45.781Z,100.00
2022-08-26T22:37:51.840Z,100.00
2022-08-26T22:43:00.275Z,100.00
2022-08-26T22:48:05.709Z,100.00
2022-08-26T22:53:12.011Z,100.00
2022-08-26T22:58:20.028Z,100.00
2022-08-26T23:03:25.202Z,100.00
2022-08-26T23:08:33.045Z,100.00
2022-08-26T23:13:38.420Z,100.00
2022-08-26T23:18:44.133Z,100.00
2022-08-26T23:23:50.405Z,100.00
2022-08-26T23:28:55.888Z,100.00
2022-08-26T23:34:18.122Z,100.00
2022-08-26T23:39:25.523Z,100.00
2022-08-26T23:44:30.970Z,100.00
2022-08-26T23:49:36.873Z,100.00
2022-08-26T23:54:42.774Z,100.00
2022-08-26T23:59:48.423Z,100.00
